createdAt,value
2022-11-27T00:01:01.746Z,9.70
2022-11-27T00:03:29.123Z,9.93
2022-11-27T00:05:57.473Z,8.60
2022-11-27T00:08:27.747Z,8.97
2022-11-27T00:10:54.934Z,8.93
2022-11-27T00:13:22.119Z,9.10
2022-11-27T00:15:49.603Z,8.70
2022-11-27T00:18:16.930Z,8.30
2022-11-27T00:20:44.211Z,9.07
2022-11-27T00:23:11.411Z,9.13
2022-11-27T00:25:38.621Z,8.43
2022-11-27T00:28:05.795Z,9.37
2022-11-27T00:30:33.034Z,9.00
2022-11-27T00:33:00.480Z,8.33
2022-11-27T00:35:27.736Z,7.73
2022-11-27T00:37:54.911Z,8.40
2022-11-27T00:40:22.098Z,8.37
2022-11-27T00:42:49.285Z,7.77
2022-11-27T00:45:16.608Z,8.07
2022-11-27T00:47:43.750Z,8.00
2022-11-27T00:50:11.102Z,8.30
2022-11-27T00:52:38.338Z,7.63
2022-11-27T00:55:05.824Z,7.70
2022-11-27T00:57:32.980Z,7.80
2022-11-27T01:00:00.255Z,8.80
2022-11-27T01:02:27.591Z,9.27
2022-11-27T01:04:54.880Z,8.47
2022-11-27T01:07:22.169Z,7.60
2022-11-27T01:09:49.427Z,8.43
2022-11-27T01:12:16.581Z,8.87
2022-11-27T01:14:43.786Z,9.90
2022-11-27T01:17:10.990Z,9.43
2022-11-27T01:19:38.317Z,9.33
2022-11-27T01:22:05.507Z,8.57
2022-11-27T01:24:32.731Z,8.77
2022-11-27T01:26:59.971Z,9.83
2022-11-27T01:29:27.162Z,8.97
2022-11-27T01:31:54.424Z,9.80
2022-11-27T01:34:21.707Z,8.80
2022-11-27T01:36:49.008Z,9.60
2022-11-27T01:39:18.239Z,9.63
2022-11-27T01:41:45.695Z,8.83
2022-11-27T01:44:30.836Z,9.10
2022-11-27T01:47:06.023Z,9.90
2022-11-27T01:49:52.032Z,9.47
2022-11-27T01:52:24.763Z,9.07
2022-11-27T01:54:55.349Z,9.63
2022-11-27T01:57:27.949Z,9.00
2022-11-27T01:59:55.940Z,9.70
2022-11-27T02:02:23.253Z,9.63
2022-11-27T02:04:50.623Z,9.23
2022-11-27T02:07:17.943Z,9.30
2022-11-27T02:09:45.409Z,8.33
2022-11-27T02:12:25.549Z,10.17
2022-11-27T02:14:55.847Z,10.07
2022-11-27T02:17:41.895Z,8.90
2022-11-27T02:20:11.954Z,8.73
2022-11-27T02:22:39.318Z,8.53
2022-11-27T02:25:13.987Z,9.13
2022-11-27T02:27:50.668Z,9.10
2022-11-27T02:30:18.220Z,8.97
2022-11-27T02:33:14.767Z,8.87
2022-11-27T02:35:44.143Z,9.70
2022-11-27T02:38:16.958Z,9.40
2022-11-27T02:40:51.929Z,9.30
2022-11-27T02:43:21.468Z,8.50
2022-11-27T02:45:50.043Z,9.23
2022-11-27T02:48:19.680Z,8.60
2022-11-27T02:50:47.623Z,8.27
2022-11-27T02:53:31.409Z,8.63
2022-11-27T02:55:59.259Z,8.73
2022-11-27T02:58:28.273Z,8.13
2022-11-27T03:00:56.195Z,8.87
2022-11-27T03:03:25.595Z,8.53
2022-11-27T03:05:54.480Z,8.90
2022-11-27T03:08:48.298Z,8.87
2022-11-27T03:11:16.228Z,8.67
2022-11-27T03:13:45.433Z,8.67
2022-11-27T03:16:26.196Z,9.57
2022-11-27T03:19:02.463Z,7.90
2022-11-27T03:21:33.151Z,8.70
2022-11-27T03:24:00.430Z,8.93
2022-11-27T03:26:27.803Z,9.30
2022-11-27T03:28:55.952Z,9.27
2022-11-27T03:31:26.198Z,8.80
2022-11-27T03:33:53.541Z,8.73
2022-11-27T03:36:21.610Z,8.87
2022-11-27T03:38:49.788Z,8.90
2022-11-27T03:41:22.206Z,9.83
2022-11-27T03:43:58.448Z,8.83
2022-11-27T03:46:30.845Z,9.37
2022-11-27T03:48:58.022Z,9.60
2022-11-27T03:51:45.497Z,9.03
2022-11-27T03:54:17.916Z,9.03
2022-11-27T03:56:56.718Z,8.90
2022-11-27T03:59:26.137Z,9.23
2022-11-27T04:01:53.594Z,9.70
2022-11-27T04:04:20.878Z,8.90
2022-11-27T04:06:48.183Z,8.60
2022-11-27T04:09:15.372Z,8.53
2022-11-27T04:11:42.703Z,8.60
2022-11-27T04:14:09.927Z,9.73
2022-11-27T04:16:37.275Z,9.20
2022-11-27T04:19:04.513Z,9.67
2022-11-27T04:21:31.696Z,9.43
2022-11-27T04:23:58.989Z,9.83
2022-11-27T04:26:26.220Z,10.10
2022-11-27T04:28:53.405Z,10.47
2022-11-27T04:31:20.626Z,10.67
2022-11-27T04:33:47.970Z,10.23
2022-11-27T04:36:15.132Z,9.60
2022-11-27T04:38:42.292Z,10.03
2022-11-27T04:41:09.497Z,10.20
2022-11-27T04:43:36.691Z,10.10
2022-11-27T04:46:03.936Z,10.57
2022-11-27T04:48:31.144Z,11.00
2022-11-27T04:50:58.446Z,10.50
2022-11-27T04:53:25.664Z,9.80
2022-11-27T04:55:53.007Z,10.03
2022-11-27T04:58:20.162Z,10.20
2022-11-27T05:00:47.431Z,9.60
2022-11-27T05:03:14.950Z,10.63
2022-11-27T05:05:42.224Z,9.40
2022-11-27T05:08:09.387Z,9.20
2022-11-27T05:10:36.721Z,10.40
2022-11-27T05:13:03.894Z,10.63
2022-11-27T05:15:31.148Z,11.03
2022-11-27T05:17:58.375Z,10.03
2022-11-27T05:20:25.560Z,9.73
2022-11-27T05:22:52.976Z,10.70
2022-11-27T05:25:20.159Z,11.00
2022-11-27T05:27:47.427Z,8.90
2022-11-27T05:30:14.620Z,8.23
2022-11-27T05:32:41.841Z,8.00
2022-11-27T05:35:09.223Z,7.53
2022-11-27T05:37:36.485Z,6.40
2022-11-27T05:40:03.759Z,6.50
2022-11-27T05:42:30.995Z,6.77
2022-11-27T05:44:58.718Z,6.17
2022-11-27T05:47:26.012Z,5.93
2022-11-27T05:49:53.330Z,6.70
2022-11-27T05:52:20.489Z,6.10
2022-11-27T05:54:47.704Z,6.80
2022-11-27T05:57:14.927Z,6.97
2022-11-27T05:59:42.163Z,6.37
2022-11-27T06:02:09.419Z,6.77
2022-11-27T06:04:36.997Z,6.70
2022-11-27T06:07:04.230Z,7.23
2022-11-27T06:09:31.490Z,6.77
2022-11-27T06:11:58.860Z,7.03
2022-11-27T06:14:26.090Z,6.37
2022-11-27T06:16:53.366Z,6.90
2022-11-27T06:19:20.662Z,6.90
2022-11-27T06:21:47.935Z,6.90
2022-11-27T06:24:15.310Z,7.20
2022-11-27T06:26:43.150Z,7.30
2022-11-27T06:29:10.433Z,7.50
2022-11-27T06:31:37.782Z,7.30
2022-11-27T06:34:05.297Z,6.87
2022-11-27T06:36:34.534Z,7.37
2022-11-27T06:39:02.040Z,7.50
2022-11-27T06:41:29.382Z,7.37
2022-11-27T06:43:58.092Z,7.70
2022-11-27T06:46:25.776Z,7.07
2022-11-27T06:48:53.634Z,7.63
2022-11-27T06:51:22.584Z,8.33
2022-11-27T06:53:50.610Z,7.57
2022-11-27T06:56:19.101Z,8.00
2022-11-27T06:58:49.029Z,8.07
2022-11-27T07:01:17.512Z,7.97
2022-11-27T07:03:45.198Z,7.90
2022-11-27T07:06:15.066Z,8.20
2022-11-27T07:08:43.375Z,7.37
2022-11-27T07:11:15.305Z,7.87
2022-11-27T07:13:42.840Z,8.03
2022-11-27T07:16:11.008Z,8.13
2022-11-27T07:18:39.732Z,8.00
2022-11-27T07:21:07.101Z,8.20
2022-11-27T07:23:34.367Z,8.10
2022-11-27T07:26:05.839Z,8.67
2022-11-27T07:28:33.185Z,7.63
2022-11-27T07:31:01.095Z,8.13
2022-11-27T07:33:28.593Z,19.97
2022-11-27T07:36:09.535Z,19.93
2022-11-27T07:38:36.882Z,9.17
2022-11-27T07:41:04.678Z,8.73
2022-11-27T07:43:33.778Z,8.83
2022-11-27T07:46:12.263Z,8.40
2022-11-27T07:48:40.124Z,8.90
2022-11-27T07:51:07.859Z,8.53
2022-11-27T07:53:38.433Z,8.87
2022-11-27T07:56:06.695Z,27.30
2022-11-27T07:58:34.459Z,14.27
2022-11-27T08:01:01.792Z,9.40
2022-11-27T08:03:29.077Z,8.37
2022-11-27T08:05:56.319Z,8.40
2022-11-27T08:08:23.545Z,7.97
2022-11-27T08:10:50.760Z,8.67
2022-11-27T08:13:18.176Z,8.83
2022-11-27T08:15:46.151Z,9.37
2022-11-27T08:18:13.665Z,8.53
2022-11-27T08:20:40.972Z,8.93
2022-11-27T08:23:08.182Z,10.07
2022-11-27T08:25:35.477Z,9.90
2022-11-27T08:28:02.686Z,9.67
2022-11-27T08:30:29.951Z,9.87
2022-11-27T08:32:57.166Z,9.40
2022-11-27T08:35:24.654Z,10.93
2022-11-27T08:37:52.260Z,9.83
2022-11-27T08:40:19.666Z,10.37
2022-11-27T08:42:46.951Z,11.27
2022-11-27T08:45:14.250Z,10.67
2022-11-27T08:47:43.513Z,11.50
2022-11-27T08:50:11.013Z,11.63
2022-11-27T08:52:38.499Z,12.40
2022-11-27T08:55:05.951Z,12.43
2022-11-27T08:57:33.301Z,12.03
2022-11-27T09:00:00.636Z,12.83
2022-11-27T09:02:27.987Z,12.80
2022-11-27T09:04:55.300Z,12.40
2022-11-27T09:07:22.547Z,12.80
2022-11-27T09:09:49.886Z,12.10
2022-11-27T09:12:17.263Z,12.40
2022-11-27T09:14:44.472Z,12.47
2022-11-27T09:17:11.725Z,11.83
2022-11-27T09:19:39.027Z,12.40
2022-11-27T09:22:06.320Z,13.17
2022-11-27T09:24:33.597Z,12.87
2022-11-27T09:27:00.784Z,13.43
2022-11-27T09:29:28.011Z,12.43
2022-11-27T09:31:55.209Z,13.00
2022-11-27T09:34:22.581Z,13.07
2022-11-27T09:36:50.577Z,12.07
2022-11-27T09:39:19.604Z,12.87
2022-11-27T09:41:52.002Z,13.17
2022-11-27T09:44:25.041Z,13.30
2022-11-27T09:46:52.932Z,12.70
2022-11-27T09:49:27.097Z,13.93
2022-11-27T09:51:57.207Z,13.03
2022-11-27T09:54:27.338Z,14.03
2022-11-27T09:56:55.739Z,12.97
2022-11-27T09:59:24.635Z,12.97
2022-11-27T10:01:52.294Z,13.07
2022-11-27T10:04:21.136Z,12.53
2022-11-27T10:07:00.381Z,13.20
2022-11-27T10:09:33.756Z,12.43
2022-11-27T10:12:09.935Z,13.37
2022-11-27T10:14:46.611Z,12.97
2022-11-27T10:17:20.569Z,11.70
2022-11-27T10:19:54.093Z,12.27
2022-11-27T10:22:25.585Z,10.97
2022-11-27T10:25:13.349Z,11.10
2022-11-27T10:27:48.345Z,9.97
2022-11-27T10:30:16.557Z,8.50
2022-11-27T10:32:55.223Z,8.60
2022-11-27T10:35:24.452Z,7.77
2022-11-27T10:37:55.603Z,7.30
2022-11-27T10:40:46.022Z,7.57
2022-11-27T10:43:16.571Z,6.03
2022-11-27T10:45:49.649Z,11.83
2022-11-27T10:48:17.464Z,5.30
2022-11-27T10:50:46.018Z,5.47
2022-11-27T10:53:22.476Z,5.07
2022-11-27T10:56:08.896Z,4.40
2022-11-27T10:58:44.211Z,4.30
2022-11-27T11:01:12.989Z,4.27
2022-11-27T11:03:40.494Z,4.50
2022-11-27T11:06:22.171Z,4.20
2022-11-27T11:09:02.108Z,4.47
2022-11-27T11:11:29.471Z,4.27
2022-11-27T11:13:57.045Z,4.40
2022-11-27T11:16:34.797Z,4.57
2022-11-27T11:19:02.884Z,3.87
2022-11-27T11:21:33.956Z,3.50
2022-11-27T11:24:02.584Z,3.90
2022-11-27T11:26:31.831Z,4.20
2022-11-27T11:29:00.647Z,3.63
2022-11-27T11:31:34.192Z,3.83
2022-11-27T11:34:03.724Z,3.57
2022-11-27T11:36:31.310Z,3.70
2022-11-27T11:38:59.049Z,3.87
2022-11-27T11:41:36.673Z,3.57
2022-11-27T11:44:04.745Z,3.53
2022-11-27T11:46:33.774Z,4.07
2022-11-27T11:49:24.129Z,3.93
2022-11-27T11:52:00.324Z,3.93
2022-11-27T11:54:37.699Z,3.20
2022-11-27T11:57:06.837Z,4.33
2022-11-27T11:59:43.763Z,3.90
2022-11-27T12:02:18.900Z,4.00
2022-11-27T12:05:00.120Z,4.17
2022-11-27T12:07:33.639Z,4.33
2022-11-27T12:10:05.525Z,3.90
2022-11-27T12:12:42.246Z,3.80
2022-11-27T12:15:19.663Z,4.37
2022-11-27T12:18:02.001Z,3.33
2022-11-27T12:20:34.576Z,3.87
2022-11-27T12:23:08.083Z,3.43
2022-11-27T12:25:40.192Z,3.50
2022-11-27T12:28:10.741Z,3.90
2022-11-27T12:30:37.950Z,3.57
2022-11-27T12:33:07.889Z,3.83
2022-11-27T12:35:39.567Z,3.70
2022-11-27T12:38:36.591Z,3.50
2022-11-27T12:41:04.360Z,3.23
2022-11-27T12:43:38.561Z,4.20
2022-11-27T12:46:12.271Z,4.23
2022-11-27T12:48:46.998Z,3.83
2022-11-27T12:51:21.792Z,4.30
2022-11-27T12:54:15.519Z,4.37
2022-11-27T12:56:45.915Z,4.33
2022-11-27T12:59:17.376Z,4.50
2022-11-27T13:01:47.936Z,4.20
2022-11-27T13:04:27.538Z,4.60
2022-11-27T13:07:06.864Z,4.30
2022-11-27T13:09:43.703Z,4.23
2022-11-27T13:12:14.547Z,4.30
2022-11-27T13:14:42.959Z,4.60
2022-11-27T13:17:15.696Z,4.30
2022-11-27T13:19:46.067Z,3.93
2022-11-27T13:22:15.446Z,4.30
2022-11-27T13:24:43.076Z,4.30
2022-11-27T13:27:14.891Z,4.47
2022-11-27T13:29:55.933Z,4.40
2022-11-27T13:32:24.738Z,4.13
2022-11-27T13:35:22.011Z,3.80
2022-11-27T13:38:09.574Z,4.13
2022-11-27T13:40:44.384Z,4.07
2022-11-27T13:43:33.067Z,4.40
2022-11-27T13:46:08.570Z,4.43
2022-11-27T13:48:37.725Z,4.33
2022-11-27T13:51:06.769Z,4.23
2022-11-27T13:53:36.438Z,4.63
2022-11-27T13:56:04.601Z,4.63
2022-11-27T13:58:33.342Z,5.13
2022-11-27T14:01:12.763Z,4.43
2022-11-27T14:03:40.214Z,4.80
2022-11-27T14:06:27.847Z,4.43
2022-11-27T14:08:58.469Z,4.50
2022-11-27T14:11:30.350Z,5.30
2022-11-27T14:13:58.291Z,4.67
2022-11-27T14:16:30.394Z,5.20
2022-11-27T14:19:00.020Z,4.97
2022-11-27T14:21:39.256Z,4.83
2022-11-27T14:24:26.555Z,5.37
2022-11-27T14:26:54.655Z,5.07
2022-11-27T14:29:22.681Z,5.70
2022-11-27T14:32:00.446Z,5.40
2022-11-27T14:34:34.785Z,5.27
2022-11-27T14:37:02.019Z,5.73
2022-11-27T14:39:37.069Z,5.20
2022-11-27T14:42:05.716Z,5.37
2022-11-27T14:44:33.247Z,6.23
2022-11-27T14:47:02.148Z,5.90
2022-11-27T14:49:30.568Z,6.60
2022-11-27T14:52:00.782Z,5.83
2022-11-27T14:54:33.907Z,6.03
2022-11-27T14:57:01.255Z,5.40
2022-11-27T14:59:28.511Z,5.40
2022-11-27T15:02:22.261Z,5.77
2022-11-27T15:05:01.956Z,5.73
2022-11-27T15:07:30.581Z,5.73
2022-11-27T15:09:59.302Z,5.53
2022-11-27T15:12:29.163Z,5.90
2022-11-27T15:15:05.148Z,5.53
2022-11-27T15:17:36.954Z,5.80
2022-11-27T15:20:13.429Z,6.13
2022-11-27T15:22:40.838Z,6.50
2022-11-27T15:25:08.881Z,6.40
2022-11-27T15:27:54.226Z,6.73
2022-11-27T15:30:24.879Z,6.40
2022-11-27T15:32:53.363Z,7.17
2022-11-27T15:35:38.554Z,7.23
2022-11-27T15:38:09.965Z,14.80
2022-11-27T15:40:38.993Z,7.43
2022-11-27T15:43:16.011Z,7.13
2022-11-27T15:45:44.421Z,8.20
2022-11-27T15:48:15.645Z,6.33
2022-11-27T15:50:46.886Z,7.10
2022-11-27T15:53:18.597Z,6.93
2022-11-27T15:55:45.960Z,7.00
2022-11-27T15:58:13.227Z,7.47
2022-11-27T16:00:40.841Z,7.23
2022-11-27T16:03:08.107Z,6.80
2022-11-27T16:05:36.767Z,6.70
2022-11-27T16:08:05.355Z,6.77
2022-11-27T16:10:32.677Z,5.90
2022-11-27T16:12:59.978Z,6.63
2022-11-27T16:15:31.588Z,6.33
2022-11-27T16:18:00.274Z,5.80
2022-11-27T16:20:28.123Z,6.17
2022-11-27T16:22:55.624Z,5.93
2022-11-27T16:25:22.857Z,5.80
2022-11-27T16:27:50.206Z,6.03
2022-11-27T16:30:19.973Z,5.77
2022-11-27T16:32:48.478Z,6.67
2022-11-27T16:35:15.705Z,6.60
2022-11-27T16:37:44.490Z,6.70
2022-11-27T16:40:11.991Z,6.50
2022-11-27T16:42:39.558Z,6.90
2022-11-27T16:45:07.373Z,6.17
2022-11-27T16:47:34.660Z,6.33
2022-11-27T16:50:02.711Z,6.60
2022-11-27T16:52:31.041Z,5.90
2022-11-27T16:54:58.494Z,6.90
2022-11-27T16:57:25.886Z,6.97
2022-11-27T16:59:53.330Z,6.47
2022-11-27T17:02:20.779Z,7.10
2022-11-27T17:04:48.141Z,6.50
2022-11-27T17:07:15.532Z,6.73
2022-11-27T17:09:42.811Z,7.50
2022-11-27T17:12:10.096Z,7.30
2022-11-27T17:14:38.625Z,7.60
2022-11-27T17:17:06.665Z,7.80
2022-11-27T17:19:36.012Z,7.13
2022-11-27T17:22:03.667Z,7.07
2022-11-27T17:24:35.968Z,7.30
2022-11-27T17:27:06.220Z,7.57
2022-11-27T17:29:35.923Z,7.63
2022-11-27T17:32:04.024Z,7.63
2022-11-27T17:34:33.116Z,7.30
2022-11-27T17:37:00.527Z,6.63
2022-11-27T17:39:27.758Z,7.17
2022-11-27T17:41:55.056Z,6.73
2022-11-27T17:44:22.300Z,6.80
2022-11-27T17:46:50.599Z,7.20
2022-11-27T17:49:19.735Z,6.77
2022-11-27T17:51:49.508Z,6.80
2022-11-27T17:54:18.336Z,6.70
2022-11-27T17:56:51.123Z,7.30
2022-11-27T17:59:19.586Z,7.20
2022-11-27T18:01:48.505Z,7.40
2022-11-27T18:04:16.345Z,7.50
2022-11-27T18:06:43.785Z,20.70
2022-11-27T18:09:11.624Z,12.63
2022-11-27T18:11:39.693Z,7.53
2022-11-27T18:14:07.146Z,6.50
2022-11-27T18:16:36.372Z,6.50
2022-11-27T18:19:05.370Z,7.70
2022-11-27T18:21:51.436Z,6.87
2022-11-27T18:24:23.993Z,6.53
2022-11-27T18:27:08.867Z,7.40
2022-11-27T18:29:37.232Z,7.30
2022-11-27T18:32:04.858Z,7.37
2022-11-27T18:34:32.301Z,7.40
2022-11-27T18:37:00.715Z,7.73
2022-11-27T18:39:28.561Z,7.53
2022-11-27T18:41:55.892Z,8.70
2022-11-27T18:44:23.367Z,8.77
2022-11-27T18:46:50.863Z,9.13
2022-11-27T18:49:18.876Z,9.53
2022-11-27T18:51:46.960Z,10.20
2022-11-27T18:54:14.238Z,10.67
2022-11-27T18:56:41.513Z,11.13
2022-11-27T18:59:09.496Z,11.50
2022-11-27T19:01:42.216Z,12.30
2022-11-27T19:04:10.647Z,11.37
2022-11-27T19:06:38.576Z,12.37
2022-11-27T19:09:06.412Z,12.13
2022-11-27T19:11:34.857Z,13.87
2022-11-27T19:14:06.573Z,12.50
2022-11-27T19:16:42.062Z,13.13
2022-11-27T19:19:22.403Z,13.13
2022-11-27T19:21:56.665Z,13.23
2022-11-27T19:24:23.913Z,13.70
2022-11-27T19:26:54.334Z,13.40
2022-11-27T19:29:21.712Z,13.60
2022-11-27T19:31:49.053Z,14.50
2022-11-27T19:34:16.564Z,14.67
2022-11-27T19:36:43.972Z,14.27
2022-11-27T19:39:14.511Z,16.03
2022-11-27T19:41:43.233Z,13.70
2022-11-27T19:44:11.642Z,15.00
2022-11-27T19:46:39.271Z,14.63
2022-11-27T19:49:13.572Z,14.23
2022-11-27T19:51:40.910Z,14.67
2022-11-27T19:56:54.903Z,14.53
2022-11-27T19:59:25.898Z,13.70
2022-11-27T20:01:55.152Z,14.40
2022-11-27T20:04:27.196Z,14.47
2022-11-27T20:06:54.816Z,14.67
2022-11-27T20:09:22.170Z,15.03
2022-11-27T20:11:49.730Z,13.90
2022-11-27T20:14:17.515Z,14.13
2022-11-27T20:16:45.253Z,13.20
2022-11-27T20:19:12.891Z,14.80
2022-11-27T20:21:41.981Z,13.53
2022-11-27T20:24:09.251Z,14.43
2022-11-27T20:26:41.280Z,14.13
2022-11-27T20:29:10.930Z,13.37
2022-11-27T20:31:38.389Z,14.00
2022-11-27T20:34:07.090Z,14.37
2022-11-27T20:36:35.521Z,13.93
2022-11-27T20:39:03.073Z,14.80
2022-11-27T20:41:30.962Z,13.80
2022-11-27T20:43:59.825Z,14.60
2022-11-27T20:46:28.696Z,14.57
2022-11-27T20:48:57.012Z,14.27
2022-11-27T20:51:28.434Z,14.10
2022-11-27T20:53:57.174Z,14.17
2022-11-27T20:56:24.571Z,14.40
2022-11-27T20:58:52.064Z,13.40
2022-11-27T21:01:20.978Z,14.73
2022-11-27T21:03:50.072Z,15.20
2022-11-27T21:06:18.419Z,15.77
2022-11-27T21:08:45.852Z,15.00
2022-11-27T21:11:15.316Z,15.47
2022-11-27T21:13:44.155Z,14.57
2022-11-27T21:16:12.164Z,15.50
2022-11-27T21:18:39.385Z,15.97
2022-11-27T21:21:08.254Z,15.23
2022-11-27T21:23:35.965Z,15.13
2022-11-27T21:26:03.266Z,15.93
2022-11-27T21:28:31.045Z,15.33
2022-11-27T21:31:08.533Z,15.73
2022-11-27T21:33:36.221Z,15.00
2022-11-27T21:36:04.004Z,15.60
2022-11-27T21:38:31.426Z,15.90
2022-11-27T21:40:58.676Z,15.63
2022-11-27T21:43:25.995Z,15.87
2022-11-27T21:45:53.880Z,14.53
2022-11-27T21:48:21.417Z,15.27
2022-11-27T21:50:48.783Z,14.57
2022-11-27T21:53:17.503Z,15.20
2022-11-27T21:55:45.033Z,14.60
2022-11-27T21:58:12.552Z,14.00
2022-11-27T22:00:39.967Z,15.13
2022-11-27T22:03:07.145Z,13.27
2022-11-27T22:05:34.332Z,13.73
2022-11-27T22:08:01.644Z,14.17
2022-11-27T22:10:29.111Z,14.63
2022-11-27T22:12:56.417Z,13.83
2022-11-27T22:15:23.726Z,13.40
2022-11-27T22:17:50.957Z,12.90
2022-11-27T22:20:18.323Z,13.20
2022-11-27T22:25:30.930Z,13.00
2022-11-27T22:27:58.697Z,12.70
2022-11-27T22:30:26.334Z,12.67
2022-11-27T22:32:54.341Z,12.70
2022-11-27T22:35:21.947Z,13.67
2022-11-27T22:37:49.310Z,12.53
2022-11-27T22:40:16.760Z,11.57
2022-11-27T22:42:44.102Z,12.17
2022-11-27T22:45:11.395Z,11.93
2022-11-27T22:47:39.483Z,11.83
2022-11-27T22:50:07.333Z,12.47
2022-11-27T22:52:34.751Z,12.30
2022-11-27T22:55:02.183Z,10.83
2022-11-27T22:57:29.390Z,11.77
2022-11-27T22:59:56.653Z,12.07
2022-11-27T23:02:23.947Z,11.37
2022-11-27T23:04:51.894Z,11.60
2022-11-27T23:07:24.797Z,10.77
2022-11-27T23:09:52.646Z,11.70
2022-11-27T23:12:19.898Z,12.10
2022-11-27T23:14:47.103Z,11.87
2022-11-27T23:17:14.374Z,11.80
2022-11-27T23:19:41.839Z,11.63
2022-11-27T23:22:09.094Z,11.03
2022-11-27T23:24:36.406Z,10.97
2022-11-27T23:27:03.593Z,11.57
2022-11-27T23:29:30.839Z,10.27
2022-11-27T23:31:58.058Z,9.83
2022-11-27T23:34:25.387Z,10.80
2022-11-27T23:36:52.741Z,10.20
2022-11-27T23:39:19.957Z,8.97
2022-11-27T23:41:49.186Z,10.30
2022-11-27T23:44:16.539Z,10.43
2022-11-27T23:46:43.965Z,9.70
2022-11-27T23:49:11.300Z,10.47
2022-11-27T23:51:38.527Z,9.70
2022-11-27T23:54:10.182Z,10.23
2022-11-27T23:56:38.254Z,9.80
2022-11-27T23:59:05.514Z,9.70
